EST,Max TemperatureF,Mean TemperatureF,Min TemperatureF,Max Dew PointF,MeanDew PointF,Min DewpointF,Max Humidity, Mean Humidity, Min Humidity, Max Sea Level PressureIn, Mean Sea Level PressureIn, Min Sea Level PressureIn, Max VisibilityMiles, Mean VisibilityMiles, Min VisibilityMiles, Max Wind SpeedMPH, Mean Wind SpeedMPH, Max Gust SpeedMPH,PrecipitationIn, CloudCover, Events, WindDirDegrees
2012-11-1,49,47,44,38,37,35,71,66,61,29.70,29.64,29.60,10,10,10,17,10,23,T,8,Rain,265
2012-11-2,50,45,39,36,33,31,79,65,50,29.88,29.76,29.70,10,10,10,25,14,32,T,7,Rain,299
2012-11-3,49,45,41,31,30,27,62,58,53,30.06,29.97,29.88,10,10,10,23,14,30,T,7,,313
2012-11-4,44,42,40,29,28,27,60,57,53,30.07,30.05,30.03,10,10,10,17,8,21,0.00,8,,343
2012-11-5,45,38,31,28,24,23,69,57,45,30.19,30.11,30.05,10,10,10,17,8,21,0.00,5,,343
2012-11-6,43,38,33,27,23,20,70,57,43,30.23,30.15,30.06,10,10,10,10,3,13,0.00,5,,122
2012-11-7,43,38,33,27,23,20,75,60,45,30.05,29.96,29.92,10,10,10,13,6,18,0.00,8,,345
2012-11-8,51,45,39,20,17,12,48,35,21,30.06,29.96,29.90,10,10,10,26,14,35,0.00,4,,325
2012-11-9,54,45,35,35,31,19,85,63,41,30.23,30.16,30.06,10,10,9,20,8,23,0.00,1,,303
2012-11-10,56,45,33,41,37,31,96,76,55,30.38,30.32,30.23,10,6,4,6,1,8,T,5,Rain,310
2012-11-11,65,50,34,45,40,33,100,76,52,30.47,30.41,30.37,10,6,2,12,2,16,0.00,3,,125
2012-11-12,65,53,41,56,49,41,96,79,61,30.40,30.26,30.10,10,8,3,33,8,39,0.13,6,Rain,144
2012-11-13,50,44,38,45,32,25,92,69,45,30.49,30.37,30.19,10,9,5,31,10,37,0.51,5,Rain,327
2012-11-14,47,39,30,28,25,22,85,64,42,30.58,30.51,30.46,10,10,10,12,4,17,0.00,5,,1
2012-11-15,46,38,30,32,28,23,89,73,57,30.45,30.38,30.32,10,10,9,5,1,12,0.00,6,,339
2012-11-16,50,42,33,32,29,27,89,66,42,30.48,30.37,30.32,10,9,7,14,6,,0.00,3,,327
2012-11-17,54,42,29,33,29,26,92,65,38,30.63,30.58,30.48,10,10,8,9,4,14,0.00,0,,338
2012-11-18,51,40,29,36,31,26,92,74,56,30.66,30.61,30.55,10,8,4,10,2,12,0.00,2,,31
2012-11-19,51,41,31,34,30,25,96,66,36,30.53,30.40,30.25,10,8,4,8,2,15,0.00,3,,333
2012-11-20,50,41,32,38,34,30,96,76,56,30.24,30.17,30.10,10,9,6,9,2,12,0.00,6,,321
2012-11-21,54,42,29,36,31,28,100,71,41,30.24,30.20,30.15,10,8,3,9,10,,0.00,1,,318
2012-11-22,54,41,27,33,30,26,92,67,41,30.29,30.22,30.14,10,8,6,9,2,12,0.00,0,,322
2012-11-23,58,42,25,39,32,26,92,67,42,30.12,29.92,29.77,10,8,3,28,7,35,T,4,Rain,47
2012-11-24,43,39,34,23,21,19,56,50,43,29.98,29.90,29.85,10,10,10,31,19,41,0.00,6,,302
2012-11-25,40,33,25,22,21,19,75,62,48,30.03,29.98,29.91,10,10,10,20,9,25,0.00,5,,268
2012-11-26,47,35,23,28,25,21,92,67,42,30.25,30.15,30.01,10,9,7,15,3,17,0.00,2,,297
2012-11-27,36,34,32,34,31,26,100,85,70,30.28,30.24,30.21,9,3,0,8,3,12,0.41,8,Fog-Rain-Snow,321
2012-11-28,43,35,26,31,25,20,89,68,46,30.35,30.28,30.23,10,9,6,14,5,18,0.00,3,,302
2012-11-29,45,34,22,28,24,19,88,67,45,30.42,30.36,30.33,10,8,6,13,3,16,0.00,3,,224
2012-11-30,49,36,23,30,26,22,92,66,39,30.39,30.36,30.32,10,8,5,9,1,12,0.00,6,,103